Time;durP1;ratioP1;P1;durP2;ratioP2;P2;SDS_P1;SDS_P2;PMS_P1;PMS_P2;Temp;Humidity;BMP_temperature;BMP_pressure;BME280_temperature;BME280_humidity;BME280_pressure;Samples;Min_cycle;Max_cycle;Signal;HPM_P1;HPM_P2
2021/10/07 09:26:37;;;;;;;18.30;3.25;;;16.00;99.90;;;;;;15091870;22;1365970;-63
2021/10/07 09:32:28;;;;;;;9.38;1.92;;;16.40;99.90;;;;;;14775687;22;20032;-64
2021/10/07 09:38:21;;;;;;;16.40;2.28;;;16.50;99.90;;;;;;14852537;22;20609;-64
2021/10/07 09:44:32;;;;;;;15.45;2.88;;;16.60;99.90;;;;;;14849211;22;20024;-64
2021/10/07 09:50:25;;;;;;;16.42;3.75;;;16.70;99.90;;;;;;14833590;22;20031;-64
2021/10/07 09:56:26;;;;;;;19.17;3.63;;;16.80;99.90;;;;;;14816123;22;20364;-63
2021/10/07 10:02:23;;;;;;;14.13;2.42;;;16.80;99.90;;;;;;14830103;22;20024;-64
2021/10/07 10:08:12;;;;;;;16.50;2.35;;;16.80;99.90;;;;;;14801212;22;20075;-64
2021/10/07 10:14:00;;;;;;;12.30;2.25;;;17.00;99.90;;;;;;14826553;22;20248;-64
2021/10/07 10:19:52;;;;;;;13.77;2.35;;;17.10;99.90;;;;;;14816450;22;20046;-64
2021/10/07 10:25:52;;;;;;;11.10;1.80;;;17.10;99.90;;;;;;14829960;22;20052;-64
2021/10/07 10:37:57;;;;;;;7.07;1.40;;;17.30;99.90;;;;;;14837979;22;20017;-64
2021/10/07 10:43:43;;;;;;;9.85;1.92;;;17.60;99.90;;;;;;14826719;22;20020;-64
2021/10/07 10:49:37;;;;;;;7.10;2.05;;;17.90;99.90;;;;;;14834694;22;20030;-64
2021/10/07 10:55:28;;;;;;;9.05;1.80;;;18.00;99.90;;;;;;14827401;22;20028;-65
2021/10/07 11:01:15;;;;;;;11.55;2.20;;;18.10;99.90;;;;;;14831856;22;20039;-64
2021/10/07 11:07:35;;;;;;;13.38;2.25;;;18.20;99.90;;;;;;14827532;22;20034;-63
2021/10/07 11:13:53;;;;;;;10.88;2.20;;;18.20;99.90;;;;;;14772543;22;20595;-63
2021/10/07 11:19:46;;;;;;;8.98;2.15;;;18.20;99.90;;;;;;14830808;22;20028;-63
2021/10/07 11:25:35;;;;;;;9.27;2.10;;;17.90;99.90;;;;;;14828591;22;20083;-63
2021/10/07 11:31:24;;;;;;;10.73;2.00;;;17.80;99.90;;;;;;14761799;23;20025;-62
2021/10/07 11:37:13;;;;;;;7.10;1.95;;;17.80;99.90;;;;;;14759498;23;20470;-63
2021/10/07 11:43:02;;;;;;;16.23;2.42;;;17.80;99.90;;;;;;14752424;23;20660;-63
2021/10/07 11:48:50;;;;;;;10.48;2.00;;;17.80;99.90;;;;;;14757329;23;20031;-63
2021/10/07 11:54:54;;;;;;;13.90;1.95;;;17.80;99.90;;;;;;14755010;23;20458;-62
2021/10/07 12:00:47;;;;;;;15.27;2.10;;;18.00;99.90;;;;;;14757203;23;20020;-62
2021/10/07 12:06:36;;;;;;;10.18;1.80;;;17.90;99.90;;;;;;14743606;23;20017;-62
2021/10/07 12:12:25;;;;;;;7.15;1.60;;;18.10;99.90;;;;;;14723136;23;20020;-60
2021/10/07 12:18:12;;;;;;;14.25;2.28;;;18.30;99.90;;;;;;14755230;23;20099;-60
2021/10/07 12:24:01;;;;;;;6.05;2.08;;;18.50;99.90;;;;;;14747344;23;20169;-60
2021/10/07 12:29:49;;;;;;;10.60;2.28;;;18.80;99.90;;;;;;14806755;23;20081;-61
2021/10/07 12:35:36;;;;;;;13.48;2.72;;;19.00;99.90;;;;;;14821985;23;20028;-61
2021/10/07 12:41:32;;;;;;;11.52;2.92;;;19.30;99.90;;;;;;14825432;23;20365;-62
2021/10/07 12:47:23;;;;;;;11.13;2.35;;;19.00;99.90;;;;;;14825537;23;20032;-61
2021/10/07 12:53:10;;;;;;;14.48;2.97;;;18.70;99.90;;;;;;14852199;23;20469;-62
2021/10/07 12:58:59;;;;;;;16.88;3.63;;;18.50;99.90;;;;;;14854336;22;20020;-61
2021/10/07 13:04:47;;;;;;;11.07;3.28;;;18.40;99.90;;;;;;14784950;22;20045;-61
2021/10/07 13:10:36;;;;;;;13.88;2.42;;;18.40;99.90;;;;;;14782079;23;20525;-62
2021/10/07 13:16:24;;;;;;;11.48;2.70;;;18.60;99.90;;;;;;14754407;22;20171;-61
2021/10/07 13:22:12;;;;;;;8.80;2.42;;;19.10;99.90;;;;;;14779338;22;20084;-62
2021/10/07 13:28:00;;;;;;;16.40;2.80;;;19.70;99.90;;;;;;14797500;22;20025;-62
2021/10/07 13:33:49;;;;;;;13.25;2.95;;;20.10;99.90;;;;;;14686892;23;20471;-62
2021/10/07 13:39:37;;;;;;;17.25;3.08;;;20.10;99.90;;;;;;14680771;23;20021;-62
2021/10/07 13:45:24;;;;;;;20.38;3.42;;;20.10;99.90;;;;;;14720223;23;20165;-61
2021/10/07 13:57:13;;;;;;;15.55;4.05;;;19.60;99.90;;;;;;14785658;22;20095;-60
2021/10/07 14:03:00;;;;;;;11.00;2.80;;;19.50;99.90;;;;;;14787311;23;20545;-60
2021/10/07 14:08:47;;;;;;;7.95;2.45;;;19.70;99.90;;;;;;14787870;23;20021;-60
2021/10/07 14:14:43;;;;;;;11.68;3.38;;;19.70;99.90;;;;;;14787526;22;20370;-61
2021/10/07 14:20:30;;;;;;;11.50;2.65;;;19.80;99.90;;;;;;14745563;22;20035;-62
2021/10/07 14:26:17;;;;;;;16.95;2.60;;;19.80;99.90;;;;;;14761818;22;20445;-61
2021/10/07 14:32:07;;;;;;;11.25;2.45;;;19.80;99.90;;;;;;14758811;23;20031;-60
2021/10/07 14:37:54;;;;;;;12.77;2.00;;;19.70;99.90;;;;;;14769761;23;20561;-60
2021/10/07 14:43:41;;;;;;;6.75;2.03;;;19.70;99.90;;;;;;14761422;22;20037;-61
2021/10/07 14:49:32;;;;;;;6.13;1.80;;;19.60;99.90;;;;;;14766044;22;21622;-62
2021/10/07 14:55:20;;;;;;;9.70;1.83;;;19.60;99.90;;;;;;14770981;22;20020;-61
2021/10/07 15:01:07;;;;;;;19.25;9.20;;;19.60;99.90;;;;;;14768291;23;20541;-62
2021/10/07 15:06:56;;;;;;;45.95;21.65;;;19.70;99.90;;;;;;14768941;22;20099;-62
2021/10/07 15:12:44;;;;;;;13.30;4.13;;;19.80;99.90;;;;;;14784183;22;20091;-60
2021/10/07 15:18:33;;;;;;;6.75;2.72;;;19.90;99.90;;;;;;14777503;22;20143;-62
2021/10/07 15:24:22;;;;;;;7.40;2.20;;;19.80;99.90;;;;;;14780355;23;20028;-62
2021/10/07 15:30:10;;;;;;;8.70;3.88;;;19.30;99.90;;;;;;14776327;23;20024;-62
2021/10/07 15:35:57;;;;;;;9.70;4.25;;;18.90;99.90;;;;;;14816245;22;20030;-62
2021/10/07 15:48:07;;;;;;;14.13;3.08;;;19.20;99.90;;;;;;14826222;22;20016;-61
2021/10/07 15:53:53;;;;;;;10.07;2.67;;;19.40;99.90;;;;;;14828042;22;20020;-62
2021/10/07 15:59:42;;;;;;;6.97;2.70;;;19.40;99.90;;;;;;14828611;22;20465;-62
2021/10/07 16:05:29;;;;;;;11.95;2.28;;;19.10;99.90;;;;;;14828507;22;20020;-62
2021/10/07 16:11:16;;;;;;;12.70;2.17;;;18.50;99.90;;;;;;14828397;22;20024;-62
2021/10/07 16:17:04;;;;;;;9.20;1.95;;;18.00;99.90;;;;;;14828096;22;20020;-62
2021/10/07 16:22:51;;;;;;;7.35;1.60;;;18.00;99.90;;;;;;14853990;22;20023;-62
2021/10/07 16:28:39;;;;;;;7.63;1.88;;;18.10;99.90;;;;;;14838266;22;20088;-62
2021/10/07 16:34:27;;;;;;;6.57;2.17;;;18.20;99.90;;;;;;14831117;22;20610;-62
2021/10/07 16:46:56;;;;;;;7.25;2.08;;;18.30;99.90;;;;;;14845015;22;20450;-62
2021/10/07 16:52:44;;;;;;;8.15;1.73;;;18.20;99.90;;;;;;14837822;22;20099;-62
2021/10/07 16:58:32;;;;;;;13.32;2.47;;;17.90;99.90;;;;;;14838335;22;20028;-62
2021/10/07 17:04:19;;;;;;;8.40;2.15;;;17.80;99.90;;;;;;14854613;22;20381;-61
2021/10/07 17:10:14;;;;;;;10.07;2.92;;;17.70;99.90;;;;;;14856379;22;20038;-66
2021/10/07 17:16:01;;;;;;;7.20;2.72;;;17.50;99.90;;;;;;14760824;22;20118;-66
2021/10/07 17:21:49;;;;;;;10.68;2.40;;;17.30;99.90;;;;;;14837467;22;20099;-66
2021/10/07 17:28:03;;;;;;;10.68;2.30;;;17.30;99.90;;;;;;14779591;22;20024;-66
2021/10/07 17:33:52;;;;;;;5.28;2.10;;;17.10;99.90;;;;;;14815981;22;20020;-65
2021/10/07 17:39:41;;;;;;;8.00;2.38;;;16.90;99.90;;;;;;14807612;22;20030;-67
2021/10/07 17:45:30;;;;;;;8.52;2.25;;;16.80;99.90;;;;;;14828887;22;20035;-66
2021/10/07 17:51:25;;;;;;;12.20;3.90;;;16.60;99.90;;;;;;14831512;22;20042;-67
2021/10/07 17:57:13;;;;;;;9.45;2.45;;;16.60;99.90;;;;;;14856869;22;20472;-66
2021/10/07 18:03:09;;;;;;;9.65;2.47;;;16.40;99.90;;;;;;14859706;22;20107;-65
2021/10/07 18:08:56;;;;;;;7.40;2.40;;;16.30;99.90;;;;;;14854620;22;20103;-67
2021/10/07 18:14:43;;;;;;;9.07;3.13;;;16.20;99.90;;;;;;14858659;22;20048;-66
2021/10/07 18:20:32;;;;;;;14.93;3.90;;;16.10;99.90;;;;;;14858924;22;20028;-66
2021/10/07 18:26:18;;;;;;;13.30;3.67;;;16.00;99.90;;;;;;14812324;22;20103;-66
2021/10/07 18:32:06;;;;;;;8.25;3.50;;;16.00;99.90;;;;;;14867816;22;20058;-66
2021/10/07 18:37:56;;;;;;;10.45;3.50;;;15.90;99.90;;;;;;14857591;22;20361;-66
2021/10/07 18:43:43;;;;;;;9.00;3.53;;;15.80;99.90;;;;;;14858109;22;20019;-66
2021/10/07 18:49:32;;;;;;;11.80;3.53;;;15.70;99.90;;;;;;14838446;22;20026;-66
2021/10/07 18:55:20;;;;;;;16.15;5.18;;;15.70;99.90;;;;;;14856083;22;20032;-68
2021/10/07 19:01:07;;;;;;;17.38;4.82;;;15.70;99.90;;;;;;14859208;22;20047;-67
2021/10/07 19:06:53;;;;;;;14.68;4.10;;;15.60;99.90;;;;;;14857554;22;20477;-68
2021/10/07 19:12:43;;;;;;;11.27;3.92;;;15.50;99.90;;;;;;14857143;22;20099;-66
2021/10/07 19:18:31;;;;;;;13.35;3.90;;;15.50;99.90;;;;;;14856967;22;20077;-67
2021/10/07 19:24:18;;;;;;;18.48;4.13;;;15.40;99.90;;;;;;14800486;22;20506;-67
